Time;durP1;ratioP1;P1;durP2;ratioP2;P2;SDS_P1;SDS_P2;PMS_P1;PMS_P2;Temp;Humidity;BMP_temperature;BMP_pressure;BME280_temperature;BME280_humidity;BME280_pressure;Samples;Min_cycle;Max_cycle;Signal;HPM_P1;HPM_P2
2022/03/26 00:01:07;;;;;;;18.30;13.60;;;;;;;3.52;100.00;98100.97;5006490;28;20203;-53
2022/03/26 00:03:36;;;;;;;19.77;13.43;;;;;;;3.39;100.00;98104.53;5003130;28;20208;-55
2022/03/26 00:06:07;;;;;;;25.20;13.53;;;;;;;3.32;100.00;98098.09;5000179;28;20204;-52
2022/03/26 00:08:35;;;;;;;20.93;12.87;;;;;;;3.30;100.00;98103.44;4968483;28;20696;-54
2022/03/26 00:11:03;;;;;;;15.23;12.50;;;;;;;3.34;100.00;98104.06;4988006;28;20216;-51
2022/03/26 00:13:32;;;;;;;19.73;11.70;;;;;;;3.36;100.00;98102.16;5005436;28;20247;-55
2022/03/26 00:16:01;;;;;;;15.80;11.40;;;;;;;3.37;100.00;98103.81;5004776;28;20977;-53
2022/03/26 00:18:30;;;;;;;19.10;11.23;;;;;;;3.41;100.00;98113.13;5007201;28;20794;-55
2022/03/26 00:20:58;;;;;;;14.27;12.23;;;;;;;3.44;100.00;98105.03;5007424;28;20196;-54
2022/03/26 00:23:26;;;;;;;15.53;12.00;;;;;;;3.37;100.00;98110.84;4966117;28;20213;-56
2022/03/26 00:25:55;;;;;;;19.10;14.20;;;;;;;3.49;100.00;98115.16;4989236;28;20211;-54
2022/03/26 00:28:23;;;;;;;15.43;12.63;;;;;;;3.51;100.00;98118.50;5006999;28;20310;-54
2022/03/26 00:30:52;;;;;;;14.90;12.83;;;;;;;3.42;100.00;98120.03;5004353;28;20220;-57
2022/03/26 00:33:20;;;;;;;16.23;11.90;;;;;;;3.44;100.00;98119.94;5004979;28;20225;-56
2022/03/26 00:35:49;;;;;;;19.37;12.83;;;;;;;3.43;100.00;98120.88;5001464;28;20210;-54
2022/03/26 00:38:17;;;;;;;16.13;12.73;;;;;;;3.33;100.00;98118.94;4963028;28;20213;-52
2022/03/26 00:40:45;;;;;;;21.10;12.03;;;;;;;3.28;100.00;98110.59;4983398;28;20250;-53
2022/03/26 00:43:13;;;;;;;15.60;12.90;;;;;;;3.27;100.00;98118.56;5010631;28;20204;-53
2022/03/26 00:45:42;;;;;;;17.57;12.00;;;;;;;3.31;100.00;98120.81;5006680;28;20211;-52
2022/03/26 00:48:11;;;;;;;17.87;12.40;;;;;;;3.10;100.00;98098.88;5008846;28;20228;-51
2022/03/26 00:50:42;;;;;;;20.70;15.07;;;;;;;3.03;100.00;98124.66;5004063;28;20402;-56
2022/03/26 00:53:10;;;;;;;22.57;14.07;;;;;;;3.10;100.00;98127.69;4963710;28;20208;-53
2022/03/26 00:55:38;;;;;;;14.27;12.73;;;;;;;3.01;100.00;98116.09;5007070;28;20201;-55
2022/03/26 00:58:06;;;;;;;16.87;13.03;;;;;;;3.07;100.00;98123.50;4989707;28;20313;-54
2022/03/26 01:00:34;;;;;;;17.83;11.97;;;;;;;2.97;100.00;98118.09;5007332;28;20232;-55
2022/03/26 01:03:08;;;;;;;18.47;12.27;;;;;;;3.04;100.00;98115.88;4997040;28;20517;-54
2022/03/26 01:05:38;;;;;;;14.97;12.13;;;;;;;3.06;100.00;98119.19;5009850;28;20662;-54
2022/03/26 01:08:07;;;;;;;18.87;12.70;;;;;;;3.01;100.00;98122.16;5005847;28;20414;-52
2022/03/26 01:10:35;;;;;;;18.33;12.80;;;;;;;3.00;100.00;98120.47;4962262;28;20235;-55
2022/03/26 01:13:03;;;;;;;21.00;14.00;;;;;;;3.01;100.00;98119.53;4990847;28;20500;-51
2022/03/26 01:15:31;;;;;;;16.23;12.67;;;;;;;2.94;100.00;98122.72;5004283;28;20778;-55
2022/03/26 01:18:00;;;;;;;20.20;13.03;;;;;;;3.00;100.00;98114.41;5005613;28;20288;-53
2022/03/26 01:20:28;;;;;;;18.57;14.37;;;;;;;3.18;100.00;98114.84;5005901;28;20236;-56
2022/03/26 01:22:58;;;;;;;17.47;12.60;;;;;;;3.29;100.00;98114.06;5007385;28;20291;-54
2022/03/26 01:25:26;;;;;;;15.37;11.77;;;;;;;3.25;100.00;98112.63;4965579;28;20605;-53
2022/03/26 01:27:54;;;;;;;15.23;11.70;;;;;;;3.24;100.00;98106.53;4959828;28;20543;-52
2022/03/26 01:30:22;;;;;;;14.67;12.83;;;;;;;3.12;100.00;98104.81;5012438;28;20833;-56
2022/03/26 01:32:52;;;;;;;19.27;12.80;;;;;;;3.17;100.00;98098.28;5008640;28;20339;-56
2022/03/26 01:35:21;;;;;;;16.13;12.13;;;;;;;3.19;100.00;98104.22;5003234;28;20204;-51
2022/03/26 01:37:49;;;;;;;17.20;13.20;;;;;;;3.30;100.00;98097.38;5004622;28;20303;-50
2022/03/26 01:40:18;;;;;;;17.60;13.00;;;;;;;3.26;100.00;98096.75;5005520;28;20307;-53
2022/03/26 01:42:47;;;;;;;18.53;12.83;;;;;;;3.04;100.00;98103.63;4964875;28;20240;-52
2022/03/26 01:45:15;;;;;;;20.67;12.30;;;;;;;2.88;100.00;98101.28;4988469;28;20212;-56
2022/03/26 01:47:43;;;;;;;19.37;13.13;;;;;;;2.89;100.00;98097.72;5002382;28;20196;-52
2022/03/26 01:50:11;;;;;;;17.90;14.80;;;;;;;2.79;100.00;98103.75;5009956;28;20220;-52
2022/03/26 01:52:39;;;;;;;18.77;15.20;;;;;;;2.94;100.00;98107.03;5005219;28;20898;-55
2022/03/26 01:55:08;;;;;;;20.87;14.17;;;;;;;2.98;100.00;98101.44;5008208;28;20770;-53
2022/03/26 01:57:38;;;;;;;17.03;13.63;;;;;;;2.88;100.00;98097.81;4955640;28;20222;-55
2022/03/26 02:00:08;;;;;;;15.63;13.07;;;;;;;2.85;100.00;98096.28;4986404;28;20258;-54
2022/03/26 02:02:37;;;;;;;16.10;13.33;;;;;;;2.73;100.00;98090.16;5004701;28;20213;-52
2022/03/26 02:05:06;;;;;;;19.00;13.33;;;;;;;2.62;100.00;98089.25;5009207;28;20310;-55
2022/03/26 02:07:34;;;;;;;15.13;12.80;;;;;;;2.41;100.00;98093.31;5000068;28;20213;-54
2022/03/26 02:10:02;;;;;;;20.70;14.13;;;;;;;2.42;100.00;98096.75;5007371;28;20239;-54
2022/03/26 02:12:30;;;;;;;18.47;13.90;;;;;;;2.47;100.00;98099.91;4956983;28;20217;-52
2022/03/26 02:15:00;;;;;;;20.50;13.90;;;;;;;2.63;100.00;98094.38;4986489;28;20212;-54
2022/03/26 02:17:28;;;;;;;19.00;13.17;;;;;;;2.63;100.00;98086.53;5002836;28;20254;-53
2022/03/26 02:19:58;;;;;;;20.83;14.07;;;;;;;2.65;100.00;98091.66;5006732;28;20231;-56
2022/03/26 02:22:28;;;;;;;17.40;14.07;;;;;;;2.45;100.00;98078.22;5003953;28;20417;-56
2022/03/26 02:24:56;;;;;;;21.37;13.23;;;;;;;2.54;100.00;98088.03;5005744;28;20205;-56
2022/03/26 02:27:27;;;;;;;17.37;14.03;;;;;;;2.45;100.00;98079.06;4963257;28;20212;-54
2022/03/26 02:29:55;;;;;;;18.00;12.70;;;;;;;2.39;100.00;98082.13;4978631;28;20353;-56
2022/03/26 02:32:25;;;;;;;19.63;13.03;;;;;;;2.27;100.00;98081.22;5004287;28;20216;-54
2022/03/26 02:34:53;;;;;;;18.67;14.17;;;;;;;2.25;100.00;98082.25;5005635;28;20464;-53
2022/03/26 02:37:31;;;;;;;19.93;13.90;;;;;;;2.17;100.00;98088.06;5003022;28;20217;-53
2022/03/26 02:40:00;;;;;;;17.97;13.40;;;;;;;2.07;100.00;98079.16;5005261;28;20249;-52
2022/03/26 02:42:28;;;;;;;20.27;14.17;;;;;;;2.06;100.00;98080.97;4981131;28;20213;-53
2022/03/26 02:44:57;;;;;;;20.00;14.30;;;;;;;2.02;100.00;98087.34;4965775;28;20212;-56
2022/03/26 02:47:25;;;;;;;17.90;14.03;;;;;;;2.24;100.00;98093.66;5004015;28;20681;-56
2022/03/26 02:49:53;;;;;;;20.53;14.50;;;;;;;2.20;100.00;98092.22;5000821;28;21174;-55
2022/03/26 02:52:22;;;;;;;18.50;14.17;;;;;;;2.05;100.00;98079.28;5008909;28;20231;-53
2022/03/26 02:54:52;;;;;;;18.83;15.07;;;;;;;2.11;100.00;98093.72;4999198;28;20208;-55
2022/03/26 02:57:20;;;;;;;19.10;13.70;;;;;;;1.95;100.00;98089.56;5003042;28;20208;-51
2022/03/26 02:59:49;;;;;;;22.43;14.40;;;;;;;1.89;100.00;98082.16;4955543;28;20498;-54
2022/03/26 03:02:17;;;;;;;19.10;14.13;;;;;;;1.83;100.00;98079.97;4978888;28;20208;-52
2022/03/26 03:04:45;;;;;;;18.83;13.97;;;;;;;1.70;100.00;98074.75;5006300;28;20513;-54
2022/03/26 03:07:13;;;;;;;22.30;14.27;;;;;;;1.59;100.00;98078.09;5004867;28;20273;-52
2022/03/26 03:09:41;;;;;;;23.50;14.83;;;;;;;1.63;100.00;98070.88;5002242;28;20840;-55
2022/03/26 03:12:11;;;;;;;19.53;14.53;;;;;;;1.51;100.00;98077.78;5004546;28;20695;-51
2022/03/26 03:14:39;;;;;;;17.37;14.10;;;;;;;1.57;100.00;98074.75;4958759;28;20968;-53
2022/03/26 03:17:07;;;;;;;21.27;15.53;;;;;;;1.48;100.00;98080.59;4981071;28;20227;-57
2022/03/26 03:19:36;;;;;;;19.50;14.53;;;;;;;1.47;100.00;98076.31;5000264;28;20631;-54
2022/03/26 03:22:04;;;;;;;18.37;15.93;;;;;;;1.43;100.00;98073.91;5005805;28;20215;-56
2022/03/26 03:24:32;;;;;;;18.43;14.77;;;;;;;1.40;100.00;98081.97;4997084;28;20874;-51
2022/03/26 03:27:00;;;;;;;18.30;15.43;;;;;;;1.51;100.00;98080.41;5002910;28;20213;-51
2022/03/26 03:29:30;;;;;;;19.57;14.07;;;;;;;1.52;100.00;98074.22;4962316;28;20236;-50
2022/03/26 03:31:58;;;;;;;21.33;16.77;;;;;;;1.54;100.00;98085.41;4981946;28;20208;-54
2022/03/26 03:34:26;;;;;;;21.03;13.90;;;;;;;1.49;100.00;98075.25;5001156;28;20209;-51
2022/03/26 03:36:55;;;;;;;19.20;15.20;;;;;;;1.53;100.00;98075.91;5005403;28;20276;-55
2022/03/26 03:39:23;;;;;;;23.67;15.60;;;;;;;1.48;100.00;98084.03;5004537;28;20224;-52
2022/03/26 03:41:51;;;;;;;17.23;14.13;;;;;;;1.37;100.00;98081.31;5000704;28;20231;-52
2022/03/26 03:44:20;;;;;;;22.50;16.30;;;;;;;1.39;100.00;98076.84;4986544;28;20582;-53
2022/03/26 03:46:50;;;;;;;21.87;14.30;;;;;;;1.30;100.00;98084.34;4984812;28;20460;-56
2022/03/26 03:49:18;;;;;;;20.50;14.07;;;;;;;1.28;100.00;98085.38;4983156;28;20224;-53
2022/03/26 03:51:47;;;;;;;23.07;15.63;;;;;;;1.14;100.00;98075.91;5006030;28;20272;-58
2022/03/26 03:54:15;;;;;;;20.07;14.93;;;;;;;1.04;100.00;98088.72;5004182;28;20209;-53
2022/03/26 03:56:43;;;;;;;21.40;14.50;;;;;;;1.09;100.00;98077.94;5003338;28;20310;-55
2022/03/26 03:59:12;;;;;;;22.80;15.80;;;;;;;1.07;100.00;98085.91;5003676;28;20228;-54
2022/03/26 04:01:40;;;;;;;18.00;12.73;;;;;;;0.99;100.00;98082.97;4955414;28;20759;-53
2022/03/26 04:04:10;;;;;;;21.17;14.87;;;;;;;0.92;100.00;98082.53;4982611;28;20605;-55
2022/03/26 04:06:38;;;;;;;16.77;13.43;;;;;;;0.82;100.00;98090.09;5005102;28;21013;-55
2022/03/26 04:09:06;;;;;;;24.07;15.47;;;;;;;0.74;100.00;98086.31;5004709;28;20228;-55
2022/03/26 04:11:34;;;;;;;23.60;15.87;;;;;;;0.83;100.00;98083.94;4999664;28;20398;-53
2022/03/26 04:14:02;;;;;;;20.50;14.33;;;;;;;0.79;100.00;98097.31;5001150;28;20585;-50
2022/03/26 04:16:30;;;;;;;18.53;14.20;;;;;;;0.54;100.00;98084.06;4958898;28;20224;-53
2022/03/26 04:18:58;;;;;;;23.07;15.40;;;;;;;0.63;100.00;98087.03;4989727;28;20358;-53
2022/03/26 04:21:28;;;;;;;18.73;14.37;;;;;;;0.52;100.00;98096.38;5006950;28;20217;-50
2022/03/26 04:23:56;;;;;;;19.50;14.67;;;;;;;0.47;100.00;98093.22;5002452;28;20215;-53
2022/03/26 04:26:24;;;;;;;19.80;15.20;;;;;;;0.45;100.00;98096.88;5007338;28;20674;-52
2022/03/26 04:28:52;;;;;;;21.27;16.40;;;;;;;0.45;100.00;98095.09;5009465;28;20224;-55
2022/03/26 04:31:20;;;;;;;22.73;15.27;;;;;;;0.35;100.00;98097.44;4961683;28;20239;-51
2022/03/26 04:33:48;;;;;;;32.53;16.20;;;;;;;0.64;100.00;98104.34;4984122;28;20411;-51
2022/03/26 04:36:16;;;;;;;17.57;14.37;;;;;;;0.82;100.00;98099.72;5009801;28;20215;-54
2022/03/26 04:38:46;;;;;;;18.70;14.67;;;;;;;0.95;100.00;98095.38;4978339;28;20212;-56
2022/03/26 04:41:14;;;;;;;22.13;14.40;;;;;;;0.91;100.00;98108.69;5006136;28;20196;-52
2022/03/26 04:43:42;;;;;;;19.93;15.87;;;;;;;0.92;100.00;98105.16;4979840;28;20214;-54
2022/03/26 04:46:10;;;;;;;22.40;18.10;;;;;;;0.97;100.00;98113.53;4960562;28;21022;-54
2022/03/26 04:48:38;;;;;;;25.20;16.53;;;;;;;0.92;100.00;98119.06;5007083;28;20203;-48
2022/03/26 04:51:07;;;;;;;25.58;19.88;;;;;;;0.93;100.00;98127.69;4997558;28;20468;-50
2022/03/26 04:53:35;;;;;;;23.70;19.10;;;;;;;0.88;100.00;98132.38;5025204;28;20990;-57
2022/03/26 04:56:05;;;;;;;23.80;17.30;;;;;;;0.80;100.00;98123.28;5025655;28;20658;-51
2022/03/26 04:58:33;;;;;;;23.30;16.93;;;;;;;0.89;100.00;98131.44;5019884;28;20220;-57
2022/03/26 05:01:01;;;;;;;23.75;17.95;;;;;;;0.67;100.00;98119.81;5011149;28;20449;-54
2022/03/26 05:03:30;;;;;;;19.60;15.87;;;;;;;0.64;100.00;98125.22;4994762;28;20274;-49
2022/03/26 05:05:58;;;;;;;20.67;15.53;;;;;;;0.62;100.00;98127.91;4996474;28;20212;-52
2022/03/26 05:08:26;;;;;;;18.13;15.00;;;;;;;0.57;100.00;98133.44;5020076;28;20282;-54
2022/03/26 05:10:54;;;;;;;23.20;15.43;;;;;;;0.39;100.00;98130.22;5020449;28;20263;-53
2022/03/26 05:13:24;;;;;;;23.60;15.77;;;;;;;0.55;100.00;98137.88;5020339;28;20305;-54
2022/03/26 05:15:52;;;;;;;23.57;14.77;;;;;;;0.57;100.00;98140.41;5025169;28;20254;-53
2022/03/26 05:18:25;;;;;;;22.03;15.87;;;;;;;0.55;100.00;98140.50;4974995;28;20641;-56
2022/03/26 05:20:55;;;;;;;21.90;14.73;;;;;;;0.63;100.00;98141.81;5018689;28;20616;-57
2022/03/26 05:23:25;;;;;;;18.87;15.17;;;;;;;0.78;100.00;98135.59;4974351;28;20665;-62
2022/03/26 05:25:53;;;;;;;21.50;16.60;;;;;;;0.98;100.00;98144.75;5023184;28;20292;-62
2022/03/26 05:28:21;;;;;;;23.47;17.10;;;;;;;1.09;100.00;98148.41;5019799;28;20490;-63
2022/03/26 05:30:51;;;;;;;27.13;21.00;;;;;;;1.06;100.00;98139.03;5024234;28;20460;-59
2022/03/26 05:33:20;;;;;;;25.10;17.57;;;;;;;1.14;100.00;98144.59;4986656;28;20254;-56
2022/03/26 05:35:48;;;;;;;23.63;16.30;;;;;;;1.15;100.00;98146.25;4984692;28;20287;-55
2022/03/26 05:38:16;;;;;;;24.53;16.97;;;;;;;1.18;100.00;98144.38;4988349;28;20588;-51
2022/03/26 05:40:44;;;;;;;23.23;17.20;;;;;;;1.28;100.00;98141.06;5000640;28;20444;-55
2022/03/26 05:43:12;;;;;;;23.27;16.37;;;;;;;1.29;100.00;98153.19;5025383;28;20673;-53
2022/03/26 05:45:40;;;;;;;27.93;18.17;;;;;;;1.29;100.00;98149.72;5024011;28;20301;-51
2022/03/26 05:48:09;;;;;;;21.77;15.50;;;;;;;1.47;100.00;98154.69;4987057;28;20211;-55
2022/03/26 05:50:37;;;;;;;20.90;15.13;;;;;;;1.53;100.00;98156.88;5023190;28;21700;-51
2022/03/26 05:53:06;;;;;;;21.23;15.17;;;;;;;1.64;100.00;98153.53;5005602;28;20212;-57
2022/03/26 05:55:34;;;;;;;24.65;19.67;;;;;;;1.71;100.00;98152.19;5008008;28;20459;-56
2022/03/26 05:58:02;;;;;;;20.67;16.00;;;;;;;1.69;100.00;98157.50;5024217;28;20215;-59
2022/03/26 06:00:30;;;;;;;18.67;15.17;;;;;;;1.81;100.00;98157.63;5026320;28;20699;-50
2022/03/26 06:02:58;;;;;;;20.67;15.03;;;;;;;1.83;100.00;98150.53;4986153;28;20514;-53
2022/03/26 06:05:28;;;;;;;19.87;15.13;;;;;;;2.17;100.00;98153.44;5019510;28;20632;-52
2022/03/26 06:07:56;;;;;;;20.53;14.03;;;;;;;2.34;100.00;98156.63;5009677;28;20442;-58
2022/03/26 06:10:25;;;;;;;19.93;13.57;;;;;;;2.43;100.00;98167.28;5022624;28;20231;-53
2022/03/26 06:12:53;;;;;;;24.45;18.80;;;;;;;2.48;100.00;98166.97;5003948;28;20715;-54
2022/03/26 06:15:21;;;;;;;21.17;15.37;;;;;;;2.53;100.00;98170.09;5023997;28;20200;-54
2022/03/26 06:18:09;;;;;;;18.73;14.83;;;;;;;2.68;100.00;98169.94;4989545;28;20318;-57
2022/03/26 06:20:39;;;;;;;22.07;15.33;;;;;;;2.62;100.00;98173.00;5016484;28;20224;-53
2022/03/26 06:23:07;;;;;;;20.07;14.97;;;;;;;2.73;100.00;98189.63;5013339;28;20217;-56
2022/03/26 06:25:36;;;;;;;25.30;15.87;;;;;;;2.91;100.00;98183.16;5022136;28;20211;-53
2022/03/26 06:28:04;;;;;;;19.57;14.60;;;;;;;2.99;100.00;98188.69;5008916;28;20683;-53
2022/03/26 06:30:33;;;;;;;20.67;15.47;;;;;;;2.96;100.00;98189.72;5019532;28;20311;-51
2022/03/26 06:33:02;;;;;;;23.03;15.03;;;;;;;3.00;100.00;98179.88;5025196;28;20297;-58
2022/03/26 06:35:30;;;;;;;19.00;14.90;;;;;;;2.97;100.00;98183.53;4977245;28;20231;-53
2022/03/26 06:37:59;;;;;;;22.00;15.50;;;;;;;3.16;100.00;98184.84;5006570;28;20216;-54
2022/03/26 06:40:27;;;;;;;75.73;23.77;;;;;;;3.39;100.00;98188.38;4996509;28;20315;-50
2022/03/26 06:42:56;;;;;;;19.83;14.57;;;;;;;3.41;100.00;98191.72;5007029;28;20203;-55
2022/03/26 06:45:24;;;;;;;23.07;16.43;;;;;;;3.52;100.00;98190.06;5019759;28;20199;-52
2022/03/26 06:47:52;;;;;;;24.10;16.63;;;;;;;3.67;100.00;98195.97;5015655;28;20323;-57
2022/03/26 06:50:20;;;;;;;17.60;15.67;;;;;;;3.78;100.00;98174.19;4981227;28;20239;-53
2022/03/26 06:52:48;;;;;;;19.73;15.10;;;;;;;4.00;100.00;98191.75;5019965;28;20226;-55
2022/03/26 06:55:18;;;;;;;23.52;17.52;;;;;;;4.09;100.00;98185.78;5002458;28;20449;-53
2022/03/26 06:57:46;;;;;;;21.75;18.33;;;;;;;4.12;100.00;98195.22;5017485;28;20959;-48
2022/03/26 07:00:15;;;;;;;24.05;17.90;;;;;;;4.39;100.00;98194.03;4998903;28;20845;-54
2022/03/26 07:02:44;;;;;;;24.40;18.65;;;;;;;4.57;100.00;98197.81;5021910;28;20459;-57
2022/03/26 07:05:12;;;;;;;22.27;18.92;;;;;;;4.66;100.00;98193.66;4983669;28;21633;-56
2022/03/26 07:07:40;;;;;;;23.77;17.40;;;;;;;4.83;100.00;98204.59;5023119;28;20242;-54
2022/03/26 07:10:09;;;;;;;24.83;17.23;;;;;;;4.95;100.00;98201.00;5004008;28;20239;-54
2022/03/26 07:12:39;;;;;;;20.30;16.13;;;;;;;5.11;100.00;98205.00;5023719;28;20656;-53
2022/03/26 07:15:08;;;;;;;22.67;16.50;;;;;;;5.30;100.00;98196.47;5004480;28;20854;-54
2022/03/26 07:17:39;;;;;;;19.77;16.57;;;;;;;5.37;100.00;98210.75;5025422;28;20211;-57
2022/03/26 07:20:08;;;;;;;21.50;15.93;;;;;;;5.52;100.00;98205.22;5016960;28;20659;-54
2022/03/26 07:22:36;;;;;;;20.20;15.80;;;;;;;5.67;100.00;98208.34;4993353;28;20501;-56
2022/03/26 07:25:06;;;;;;;20.80;15.60;;;;;;;5.97;100.00;98218.13;5003674;28;20218;-53
2022/03/26 07:27:35;;;;;;;19.77;15.07;;;;;;;6.26;100.00;98214.00;5023061;28;20208;-54
2022/03/26 07:30:06;;;;;;;20.93;17.00;;;;;;;6.66;100.00;98206.16;5000581;28;20746;-53
2022/03/26 07:32:34;;;;;;;22.73;16.27;;;;;;;8.51;88.52;98212.47;5021243;28;20330;-58
2022/03/26 07:35:02;;;;;;;19.70;16.43;;;;;;;10.16;65.98;98210.56;5017125;28;20755;-53
2022/03/26 07:37:30;;;;;;;21.13;16.83;;;;;;;10.50;60.90;98209.78;4991391;28;20226;-59
2022/03/26 07:39:59;;;;;;;21.40;17.50;;;;;;;10.82;58.54;98208.28;5001598;28;20616;-54
2022/03/26 07:42:28;;;;;;;22.27;17.57;;;;;;;11.39;55.54;98209.41;5021890;28;20207;-55
2022/03/26 07:44:56;;;;;;;23.27;17.60;;;;;;;11.99;52.72;98214.56;5006864;28;20465;-58
2022/03/26 07:47:25;;;;;;;22.17;17.53;;;;;;;12.76;50.63;98204.44;5020118;28;20688;-55
2022/03/26 07:49:53;;;;;;;22.40;16.40;;;;;;;12.82;49.20;98212.53;5022775;28;20309;-57
2022/03/26 07:52:21;;;;;;;23.47;17.17;;;;;;;13.07;48.06;98195.59;4982989;28;20231;-56
2022/03/26 07:54:50;;;;;;;23.00;17.70;;;;;;;12.16;50.28;98213.56;5000147;28;20292;-58
2022/03/26 07:57:18;;;;;;;22.70;17.10;;;;;;;10.90;54.98;98206.63;5023236;28;20250;-52
2022/03/26 07:59:46;;;;;;;26.60;17.03;;;;;;;9.90;58.68;98210.56;5022402;28;20220;-53
2022/03/26 08:02:14;;;;;;;22.53;17.87;;;;;;;9.68;62.76;98221.47;4984234;28;20319;-54
2022/03/26 08:04:45;;;;;;;24.33;19.70;;;;;;;9.77;64.89;98211.78;5020454;28;20833;-60
2022/03/26 08:07:13;;;;;;;23.37;17.07;;;;;;;9.44;65.05;98219.44;5022240;28;20511;-52
2022/03/26 08:09:41;;;;;;;21.63;17.10;;;;;;;9.79;66.84;98216.91;4984172;28;20697;-56
2022/03/26 08:12:10;;;;;;;18.37;16.37;;;;;;;9.87;64.20;98216.16;5010855;28;20718;-55
2022/03/26 08:14:39;;;;;;;21.93;16.77;;;;;;;10.05;63.70;98216.13;4999143;28;20466;-55
2022/03/26 08:17:07;;;;;;;20.47;17.03;;;;;;;9.93;62.43;98210.25;5006918;28;20218;-56
2022/03/26 08:19:36;;;;;;;22.57;17.57;;;;;;;10.05;62.49;98216.97;5004965;28;20601;-55
2022/03/26 08:22:06;;;;;;;22.27;17.43;;;;;;;10.32;62.77;98217.78;5019305;28;20207;-56
2022/03/26 08:24:34;;;;;;;21.57;16.70;;;;;;;10.66;61.77;98214.34;4979488;28;21118;-56
2022/03/26 08:27:03;;;;;;;24.27;17.57;;;;;;;10.75;58.75;98212.56;5007757;28;20300;-55
2022/03/26 08:29:31;;;;;;;21.63;16.83;;;;;;;10.86;57.99;98219.41;5020013;28;20314;-54
2022/03/26 08:32:02;;;;;;;23.37;16.37;;;;;;;11.00;58.72;98208.16;5003631;28;20711;-52
2022/03/26 08:34:30;;;;;;;20.90;16.13;;;;;;;11.44;56.97;98217.72;5001459;28;20240;-52
2022/03/26 08:36:58;;;;;;;23.17;17.67;;;;;;;11.36;56.17;98219.50;5023793;28;20309;-55
2022/03/26 08:39:28;;;;;;;23.17;18.57;;;;;;;11.53;55.21;98210.56;4981193;28;20232;-53
2022/03/26 08:41:56;;;;;;;23.73;16.67;;;;;;;11.69;55.30;98215.06;5006016;28;20800;-52
2022/03/26 08:44:24;;;;;;;20.30;17.47;;;;;;;11.82;54.76;98211.09;5018544;28;20772;-53
2022/03/26 08:46:52;;;;;;;24.80;18.37;;;;;;;12.17;53.24;98217.06;5000321;28;20536;-53
2022/03/26 08:49:20;;;;;;;20.63;16.47;;;;;;;12.48;51.84;98202.19;5022911;28;20756;-54
2022/03/26 08:51:48;;;;;;;26.48;21.67;;;;;;;12.34;50.48;98195.75;5004968;28;20460;-52
2022/03/26 08:54:17;;;;;;;22.27;18.00;;;;;;;12.67;50.14;98198.31;4984982;28;20221;-57
2022/03/26 08:56:46;;;;;;;29.40;18.77;;;;;;;12.64;48.98;98196.81;5008888;28;20266;-54
2022/03/26 08:59:14;;;;;;;22.87;17.90;;;;;;;12.67;47.70;98203.63;5006302;28;20311;-52
2022/03/26 09:01:43;;;;;;;22.40;16.73;;;;;;;13.05;45.44;98193.13;5017609;28;20828;-54
2022/03/26 09:04:14;;;;;;;26.48;20.00;;;;;;;12.68;45.94;98186.69;5005064;28;20455;-54
2022/03/26 09:06:42;;;;;;;25.70;17.60;;;;;;;12.85;44.91;98196.22;5023279;28;20402;-50
2022/03/26 09:09:11;;;;;;;21.30;17.13;;;;;;;12.91;43.82;98189.38;4985902;28;20223;-56
2022/03/26 09:11:39;;;;;;;23.33;17.47;;;;;;;13.02;43.25;98199.63;4991856;28;20846;-56
2022/03/26 09:14:09;;;;;;;21.53;15.47;;;;;;;13.22;43.71;98204.53;5009264;28;20563;-54
2022/03/26 09:16:37;;;;;;;22.93;16.50;;;;;;;12.34;44.06;98201.06;5000205;28;20410;-53
2022/03/26 09:19:06;;;;;;;22.73;16.40;;;;;;;12.72;43.89;98198.63;5001981;28;20247;-51
2022/03/26 09:21:34;;;;;;;23.80;16.90;;;;;;;12.88;43.44;98184.41;5012444;28;20212;-55
2022/03/26 09:24:02;;;;;;;23.85;19.20;;;;;;;13.18;42.85;98189.91;5025004;28;21002;-56
2022/03/26 09:26:30;;;;;;;24.08;18.95;;;;;;;13.44;41.90;98200.25;4981452;28;20463;-52
2022/03/26 09:28:58;;;;;;;20.70;16.43;;;;;;;13.40;40.36;98192.75;5009741;28;20281;-57
2022/03/26 09:31:28;;;;;;;22.90;16.90;;;;;;;13.84;41.40;98196.59;5000911;28;20216;-52
2022/03/26 09:33:56;;;;;;;22.67;15.70;;;;;;;13.85;41.21;98198.25;5022253;28;20226;-57
2022/03/26 09:36:24;;;;;;;21.47;15.70;;;;;;;13.89;40.02;98197.72;4995571;28;20639;-53
2022/03/26 09:38:53;;;;;;;18.23;14.63;;;;;;;14.13;39.68;98203.81;5021013;28;20347;-56
2022/03/26 09:41:23;;;;;;;18.67;15.93;;;;;;;14.03;39.55;98197.94;4981172;28;20597;-53
2022/03/26 09:43:52;;;;;;;19.43;13.97;;;;;;;13.88;39.14;98196.06;5015406;28;20499;-53
2022/03/26 09:46:20;;;;;;;19.27;15.80;;;;;;;14.12;39.13;98204.81;5007535;28;20535;-54
2022/03/26 09:48:49;;;;;;;20.80;14.63;;;;;;;13.95;37.91;98204.16;5020730;28;20302;-52
2022/03/26 09:51:21;;;;;;;18.07;14.27;;;;;;;13.74;37.37;98199.50;5006693;28;20718;-55
2022/03/26 09:53:51;;;;;;;18.03;15.20;;;;;;;14.23;36.07;98205.41;5024970;28;20337;-57
2022/03/26 09:56:20;;;;;;;17.87;13.43;;;;;;;14.13;36.67;98201.16;4988357;28;20212;-54
2022/03/26 09:58:51;;;;;;;16.13;12.97;;;;;;;14.07;35.76;98207.22;5006297;28;20873;-53
2022/03/26 10:01:19;;;;;;;17.80;12.93;;;;;;;14.36;35.66;98205.59;5009065;28;20216;-56
2022/03/26 10:04:11;;;;;;;17.47;12.17;;;;;;;14.73;34.61;98203.88;5019341;28;20385;-56
2022/03/26 10:06:48;;;;;;;19.80;12.93;;;;;;;14.69;33.67;98205.22;5004071;28;20212;-58
2022/03/26 10:09:27;;;;;;;14.23;12.47;;;;;;;14.58;35.65;98195.00;5022005;28;20785;-53
2022/03/26 10:12:00;;;;;;;19.77;14.90;;;;;;;14.34;36.36;98196.97;5011569;28;20219;-56
2022/03/26 10:14:47;;;;;;;15.97;12.67;;;;;;;14.55;36.29;98193.56;5008870;28;20497;-53
2022/03/26 10:17:22;;;;;;;17.87;13.07;;;;;;;14.60;35.73;98191.16;5005250;28;20315;-52
2022/03/26 10:19:54;;;;;;;16.27;14.20;;;;;;;15.01;35.16;98189.84;5019159;28;20397;-52
2022/03/26 10:22:27;;;;;;;21.70;16.60;;;;;;;14.82;36.46;98185.09;5005043;28;20303;-54
2022/03/26 10:24:56;;;;;;;20.47;15.47;;;;;;;14.87;37.58;98185.34;5023254;28;20240;-55
2022/03/26 10:27:25;;;;;;;19.10;15.60;;;;;;;14.89;38.15;98178.81;4989798;28;20532;-56
2022/03/26 10:29:56;;;;;;;19.47;15.20;;;;;;;14.97;38.47;98190.41;5010063;28;20223;-53
2022/03/26 10:32:41;;;;;;;23.47;16.63;;;;;;;15.26;37.70;98194.81;5006025;28;20261;-55
2022/03/26 10:35:17;;;;;;;24.80;15.97;;;;;;;15.02;36.73;98171.97;5017719;28;20692;-59
2022/03/26 10:37:51;;;;;;;23.53;16.40;;;;;;;15.09;36.88;98180.88;5002199;28;20790;-50
2022/03/26 10:40:23;;;;;;;21.40;15.90;;;;;;;15.20;37.98;98176.91;5013739;28;20218;-62
2022/03/26 10:43:02;;;;;;;20.33;16.20;;;;;;;14.91;37.07;98170.63;5005574;28;20778;-53
2022/03/26 10:45:32;;;;;;;19.23;15.30;;;;;;;15.37;37.38;98177.47;5001675;28;20212;-56
2022/03/26 10:48:01;;;;;;;20.83;16.43;;;;;;;15.51;36.83;98169.59;5007429;28;20294;-53
2022/03/26 10:50:35;;;;;;;16.73;14.30;;;;;;;15.57;35.78;98171.50;5020411;28;20220;-56
2022/03/26 10:53:08;;;;;;;19.80;15.90;;;;;;;15.49;36.88;98175.13;5010034;28;20825;-54
2022/03/26 10:55:39;;;;;;;21.70;14.90;;;;;;;15.33;36.73;98173.53;4983289;28;20874;-54
2022/03/26 10:58:08;;;;;;;21.47;15.37;;;;;;;15.40;35.53;98171.75;5021347;28;20271;-56
2022/03/26 11:00:36;;;;;;;18.33;14.43;;;;;;;15.52;35.82;98169.41;5005859;28;20359;-52
2022/03/26 11:03:05;;;;;;;18.97;13.93;;;;;;;15.51;35.15;98174.91;5008487;28;20212;-60
2022/03/26 11:05:36;;;;;;;17.37;14.00;;;;;;;15.49;35.01;98170.59;5016491;28;20243;-56
2022/03/26 11:08:05;;;;;;;22.87;15.20;;;;;;;15.69;34.53;98161.09;5020504;28;20212;-60
2022/03/26 11:10:33;;;;;;;19.60;14.87;;;;;;;15.49;34.05;98164.44;4998568;28;20227;-57
2022/03/26 11:13:03;;;;;;;16.30;14.23;;;;;;;15.39;34.46;98161.28;4985657;28;20222;-61
2022/03/26 11:15:34;;;;;;;21.97;16.10;;;;;;;15.53;35.11;98151.53;5007121;28;20208;-59
2022/03/26 11:18:13;;;;;;;20.37;16.23;;;;;;;15.37;35.73;98156.13;5005909;28;20208;-58
2022/03/26 11:20:59;;;;;;;20.47;15.73;;;;;;;15.33;36.18;98150.31;5020704;28;20913;-60
2022/03/26 11:23:36;;;;;;;16.87;13.73;;;;;;;15.13;35.97;98138.63;5014580;28;20229;-58
2022/03/26 11:26:24;;;;;;;19.83;14.60;;;;;;;15.37;36.01;98144.63;5017844;28;20206;-57